createdAt,value
2018-06-07T00:00:37.689Z,0.00
2018-06-07T00:01:37.651Z,0.00
2018-06-07T00:02:37.609Z,0.00
2018-06-07T00:03:37.573Z,0.00
2018-06-07T00:04:37.576Z,0.00
2018-06-07T00:05:37.491Z,0.00
2018-06-07T00:06:37.481Z,0.00
2018-06-07T00:07:37.416Z,0.00
2018-06-07T00:08:37.378Z,0.00
2018-06-07T00:09:37.335Z,0.00
2018-06-07T00:10:37.297Z,0.00
2018-06-07T00:11:37.261Z,0.00
2018-06-07T00:12:37.221Z,0.00
2018-06-07T00:13:37.189Z,0.00
2018-06-07T00:14:37.151Z,0.00
2018-06-07T00:15:37.105Z,0.00
2018-06-07T00:16:37.065Z,0.00
2018-06-07T00:17:37.026Z,0.00
2018-06-07T00:18:36.988Z,0.00
2018-06-07T00:19:36.950Z,0.00
2018-06-07T00:20:36.915Z,0.00
2018-06-07T00:21:36.873Z,0.00
2018-06-07T00:22:36.831Z,0.00
2018-06-07T00:23:36.796Z,0.00
2018-06-07T00:24:36.755Z,0.00
2018-06-07T00:25:36.716Z,0.00
2018-06-07T00:26:36.688Z,0.00
2018-06-07T00:27:36.637Z,0.00
2018-06-07T00:28:36.600Z,0.00
2018-06-07T00:29:36.560Z,0.00
2018-06-07T00:30:36.525Z,0.00
2018-06-07T00:31:36.482Z,0.00
2018-06-07T00:33:36.408Z,0.00
2018-06-07T00:34:36.366Z,0.00
2018-06-07T00:35:36.328Z,0.00
2018-06-07T00:36:36.296Z,0.00
2018-06-07T00:37:36.248Z,0.00
2018-06-07T00:38:36.213Z,0.00
2018-06-07T00:39:36.210Z,0.00
2018-06-07T00:40:36.132Z,0.00
2018-06-07T00:41:36.095Z,0.00
2018-06-07T00:42:36.055Z,0.00
2018-06-07T00:43:36.016Z,0.00
2018-06-07T00:44:35.978Z,0.00
2018-06-07T00:45:35.937Z,0.00
2018-06-07T00:46:35.904Z,0.00
2018-06-07T00:47:35.858Z,0.00
2018-06-07T00:48:36.465Z,0.00
2018-06-07T00:49:35.782Z,0.00
2018-06-07T00:50:35.743Z,0.00
2018-06-07T00:51:35.782Z,0.00
2018-06-07T00:52:35.665Z,0.00
2018-06-07T00:53:35.702Z,0.00
2018-06-07T00:54:35.664Z,0.00
2018-06-07T00:55:35.548Z,0.00
2018-06-07T00:56:35.509Z,0.00
2018-06-07T00:57:35.467Z,0.00
2018-06-07T00:58:35.431Z,0.00
2018-06-07T00:59:35.390Z,0.00
2018-06-07T01:00:35.354Z,0.00
2018-06-07T01:01:35.312Z,0.00
2018-06-07T01:02:35.277Z,0.00
2018-06-07T01:03:35.236Z,0.00
2018-06-07T01:04:35.197Z,0.00
2018-06-07T01:05:35.161Z,0.00
2018-06-07T01:07:35.087Z,0.00
2018-06-07T01:08:35.038Z,0.00
2018-06-07T01:09:34.999Z,0.00
2018-06-07T01:10:34.963Z,0.00
2018-06-07T01:11:34.924Z,0.00
2018-06-07T01:12:34.881Z,0.00
2018-06-07T01:13:34.842Z,0.00
2018-06-07T01:14:34.803Z,0.00
2018-06-07T01:15:34.765Z,0.00
2018-06-07T01:16:34.722Z,0.00
2018-06-07T01:17:34.687Z,0.00
2018-06-07T01:18:34.647Z,0.00
2018-06-07T01:19:34.606Z,0.00
2018-06-07T01:20:34.565Z,0.00
2018-06-07T01:21:34.525Z,0.00
2018-06-07T01:22:34.490Z,0.00
2018-06-07T01:23:34.446Z,0.00
2018-06-07T01:24:34.409Z,0.00
2018-06-07T01:25:34.368Z,0.00
2018-06-07T01:26:34.330Z,0.00
2018-06-07T01:27:34.290Z,0.00
2018-06-07T01:28:34.250Z,0.00
2018-06-07T01:29:34.211Z,0.00
2018-06-07T01:30:34.173Z,0.00
2018-06-07T01:31:34.134Z,0.00
2018-06-07T01:32:34.093Z,0.00
2018-06-07T01:33:34.052Z,0.00
2018-06-07T01:34:34.013Z,0.00
2018-06-07T01:35:33.972Z,0.00
2018-06-07T01:36:33.937Z,0.00
2018-06-07T01:37:33.900Z,0.00
2018-06-07T01:38:33.857Z,0.00
2018-06-07T01:39:33.816Z,0.00
2018-06-07T01:40:33.776Z,0.00
2018-06-07T01:41:33.735Z,0.00
2018-06-07T01:42:33.698Z,0.00
2018-06-07T01:43:33.656Z,0.00
2018-06-07T01:44:33.616Z,0.00
2018-06-07T01:45:33.581Z,0.00
2018-06-07T01:46:33.536Z,0.00
2018-06-07T01:47:33.497Z,0.00
2018-06-07T01:48:33.457Z,0.00
2018-06-07T01:49:33.418Z,0.00
2018-06-07T01:50:33.387Z,0.00
2018-06-07T01:51:33.338Z,0.00
2018-06-07T01:52:33.299Z,0.00
2018-06-07T01:53:33.261Z,0.00
2018-06-07T01:54:33.222Z,0.00
2018-06-07T01:55:33.184Z,0.00
2018-06-07T01:56:33.144Z,0.00
2018-06-07T01:57:33.100Z,0.00
2018-06-07T01:58:33.062Z,0.00
2018-06-07T01:59:33.019Z,0.00
2018-06-07T02:00:32.982Z,0.00
2018-06-07T02:01:32.943Z,0.00
2018-06-07T02:02:32.906Z,0.00
2018-06-07T02:03:32.862Z,0.00
2018-06-07T02:04:32.821Z,0.00
2018-06-07T02:05:32.784Z,0.00
2018-06-07T02:06:32.740Z,0.00
2018-06-07T02:07:32.701Z,0.00
2018-06-07T02:08:32.666Z,0.00
2018-06-07T02:09:32.629Z,0.00
2018-06-07T02:10:32.581Z,0.00
2018-06-07T02:11:32.544Z,0.00
2018-06-07T02:12:32.504Z,0.00
2018-06-07T02:13:32.461Z,0.00
2018-06-07T02:14:32.422Z,0.00
2018-06-07T02:15:32.382Z,0.00
2018-06-07T02:16:32.343Z,0.00
2018-06-07T02:17:32.301Z,0.00
2018-06-07T02:18:32.261Z,0.00
2018-06-07T02:19:32.224Z,0.00
2018-06-07T02:20:32.184Z,0.00
2018-06-07T02:21:32.141Z,0.00
2018-06-07T02:22:32.102Z,0.00
2018-06-07T02:23:32.065Z,0.00
2018-06-07T02:24:32.023Z,0.00
2018-06-07T02:25:31.981Z,0.00
2018-06-07T02:26:31.941Z,0.00
2018-06-07T02:27:31.902Z,0.00
2018-06-07T02:28:31.864Z,0.00
2018-06-07T02:29:31.821Z,0.00
2018-06-07T02:30:31.784Z,0.00
2018-06-07T02:31:31.742Z,0.00
2018-06-07T02:32:31.719Z,0.00
2018-06-07T02:33:31.662Z,0.00
2018-06-07T02:34:31.621Z,0.00
2018-06-07T02:35:31.584Z,0.00
2018-06-07T02:36:31.543Z,0.00
2018-06-07T02:37:31.501Z,0.00
2018-06-07T02:38:31.461Z,0.00
2018-06-07T02:39:31.421Z,0.00
2018-06-07T02:40:31.382Z,0.00
2018-06-07T02:41:31.340Z,0.00
2018-06-07T02:42:31.301Z,0.00
2018-06-07T02:43:31.266Z,4.00
2018-06-07T02:44:31.223Z,4.00
2018-06-07T02:45:31.180Z,4.00
2018-06-07T02:46:31.141Z,0.00
2018-06-07T02:47:31.108Z,0.00
2018-06-07T02:48:31.063Z,4.00
2018-06-07T02:49:31.021Z,4.00
2018-06-07T02:50:30.983Z,4.00
2018-06-07T02:51:30.939Z,4.00
2018-06-07T02:52:30.899Z,4.00
2018-06-07T02:53:30.863Z,8.00
2018-06-07T02:54:30.822Z,8.00
2018-06-07T02:55:30.780Z,8.00
2018-06-07T02:56:30.739Z,8.00
2018-06-07T02:57:30.701Z,8.00
2018-06-07T02:58:30.658Z,12.00
2018-06-07T02:59:30.620Z,12.00
2018-06-07T03:00:30.579Z,12.00
2018-06-07T03:01:30.541Z,12.00
2018-06-07T03:02:30.502Z,16.00
2018-06-07T03:03:30.463Z,20.00
2018-06-07T03:04:30.418Z,20.00
2018-06-07T03:05:30.378Z,24.00
2018-06-07T03:06:30.337Z,24.00
2018-06-07T03:07:30.305Z,24.00
2018-06-07T03:08:30.263Z,32.00
2018-06-07T03:09:30.221Z,36.00
2018-06-07T03:10:30.182Z,36.00
2018-06-07T03:11:30.140Z,40.00
2018-06-07T03:12:30.098Z,44.00
2018-06-07T03:13:30.058Z,52.00
2018-06-07T03:14:30.017Z,56.00
2018-06-07T03:15:29.975Z,64.00
2018-06-07T03:16:29.965Z,68.00
2018-06-07T03:17:29.896Z,76.00
2018-06-07T03:18:29.860Z,80.00
2018-06-07T03:19:29.813Z,84.00
2018-06-07T03:20:29.777Z,92.00
2018-06-07T03:21:29.732Z,104.00
2018-06-07T03:22:29.699Z,116.00
2018-06-07T03:23:29.658Z,124.00
2018-06-07T03:24:29.614Z,136.00
2018-06-07T03:25:29.580Z,140.00
2018-06-07T03:26:29.538Z,152.00
2018-06-07T03:27:29.499Z,156.00
2018-06-07T03:28:29.453Z,164.00
2018-06-07T03:29:29.411Z,172.00
2018-06-07T03:30:29.370Z,184.00
2018-06-07T03:31:29.384Z,188.00
2018-06-07T03:32:29.289Z,200.00
2018-06-07T03:33:29.253Z,208.00
2018-06-07T03:34:29.208Z,216.00
2018-06-07T03:35:29.173Z,224.00
2018-06-07T03:36:29.130Z,232.00
2018-06-07T03:37:29.089Z,248.00
2018-06-07T03:38:29.049Z,264.00
2018-06-07T03:39:29.009Z,276.00
2018-06-07T03:40:28.972Z,288.00
2018-06-07T03:41:28.928Z,296.00
2018-06-07T03:42:28.892Z,312.00
2018-06-07T03:43:28.848Z,324.00
2018-06-07T03:44:28.808Z,340.00
2018-06-07T03:45:28.766Z,356.00
2018-06-07T03:46:28.727Z,376.00
2018-06-07T03:47:28.688Z,396.00
2018-06-07T03:48:28.648Z,416.00
2018-06-07T03:49:28.608Z,436.00
2018-06-07T03:50:28.565Z,456.00
2018-06-07T03:51:28.523Z,472.00
2018-06-07T03:52:28.487Z,488.00
2018-06-07T03:53:28.445Z,500.00
2018-06-07T03:54:28.406Z,512.00
2018-06-07T03:55:28.367Z,528.00
2018-06-07T03:56:28.324Z,548.00
2018-06-07T03:57:28.284Z,564.00
2018-06-07T03:58:28.245Z,584.00
2018-06-07T03:59:28.204Z,604.00
2018-06-07T04:00:28.162Z,620.00
2018-06-07T04:01:28.127Z,632.00
2018-06-07T04:02:28.167Z,644.00
2018-06-07T04:03:28.051Z,656.00
2018-06-07T04:04:28.002Z,672.00
2018-06-07T04:05:27.961Z,684.00
2018-06-07T04:06:27.921Z,696.00
2018-06-07T04:07:27.881Z,704.00
2018-06-07T04:08:27.842Z,712.00
2018-06-07T04:09:27.799Z,712.00
2018-06-07T04:10:27.760Z,720.00
2018-06-07T04:11:27.720Z,732.00
2018-06-07T04:12:27.680Z,748.00
2018-06-07T04:13:27.640Z,764.00
2018-06-07T04:14:27.598Z,788.00
2018-06-07T04:15:27.576Z,816.00
2018-06-07T04:16:27.521Z,840.00
2018-06-07T04:17:27.479Z,852.00
2018-06-07T04:18:27.455Z,860.00
2018-06-07T04:19:27.399Z,856.00
2018-06-07T04:20:27.368Z,848.00
2018-06-07T04:21:27.319Z,840.00
2018-06-07T04:22:27.278Z,828.00
2018-06-07T04:23:27.240Z,824.00
2018-06-07T04:24:27.202Z,824.00
2018-06-07T04:25:27.157Z,836.00
2018-06-07T04:26:27.117Z,848.00
2018-06-07T04:27:27.081Z,852.00
2018-06-07T04:28:27.042Z,848.00
2018-06-07T04:29:26.998Z,856.00
2018-06-07T04:30:26.962Z,844.00
2018-06-07T04:31:26.927Z,700.00
2018-06-07T04:32:26.881Z,700.00
2018-06-07T04:33:26.853Z,704.00
2018-06-07T04:34:26.802Z,692.00
2018-06-07T04:35:26.761Z,692.00
2018-06-07T04:36:26.719Z,704.00
2018-06-07T04:37:26.679Z,684.00
2018-06-07T04:38:26.647Z,748.00
2018-06-07T04:39:26.614Z,724.00
2018-06-07T04:40:26.563Z,708.00
2018-06-07T04:41:26.519Z,692.00
2018-06-07T04:42:26.482Z,688.00
2018-06-07T04:43:26.445Z,692.00
2018-06-07T04:44:26.414Z,696.00
2018-06-07T04:45:26.366Z,704.00
2018-06-07T04:46:26.332Z,708.00
2018-06-07T04:47:26.283Z,716.00
2018-06-07T04:48:26.251Z,724.00
2018-06-07T04:49:26.208Z,736.00
2018-06-07T04:50:26.171Z,748.00
2018-06-07T04:51:26.122Z,764.00
2018-06-07T04:52:26.091Z,772.00
2018-06-07T04:53:26.043Z,792.00
2018-06-07T04:54:26.011Z,808.00
2018-06-07T04:55:26.027Z,824.00
2018-06-07T04:56:25.929Z,836.00
2018-06-07T04:57:25.885Z,852.00
2018-06-07T04:58:25.845Z,872.00
2018-06-07T04:59:25.805Z,892.00
2018-06-07T05:00:25.776Z,908.00
2018-06-07T05:01:25.733Z,928.00
2018-06-07T05:02:25.688Z,948.00
2018-06-07T05:03:25.651Z,972.00
2018-06-07T05:04:25.610Z,1000.00
2018-06-07T05:05:25.571Z,1028.00
2018-06-07T05:06:25.531Z,1052.00
2018-06-07T05:07:25.494Z,1084.00
2018-06-07T05:08:25.450Z,1116.00
2018-06-07T05:09:25.409Z,1148.00
2018-06-07T05:10:25.368Z,1180.00
2018-06-07T05:11:25.331Z,1212.00
2018-06-07T05:12:25.311Z,1244.00
2018-06-07T05:13:25.253Z,1276.00
2018-06-07T05:14:25.213Z,1312.00
2018-06-07T05:15:25.174Z,1348.00
2018-06-07T05:16:25.134Z,1384.00
2018-06-07T05:17:25.093Z,1420.00
2018-06-07T05:18:25.053Z,1456.00
2018-06-07T05:19:25.015Z,1492.00
2018-06-07T05:20:24.981Z,1532.00
2018-06-07T05:21:24.937Z,1560.00
2018-06-07T05:22:24.925Z,1596.00
2018-06-07T05:23:24.856Z,1632.00
2018-06-07T05:24:24.817Z,1676.00
2018-06-07T05:25:24.778Z,1720.00
2018-06-07T05:26:24.738Z,1760.00
2018-06-07T05:27:24.702Z,1796.00
2018-06-07T05:28:24.661Z,1812.00
2018-06-07T05:29:24.621Z,1816.00
2018-06-07T05:30:24.582Z,1844.00
2018-06-07T05:31:24.542Z,1876.00
2018-06-07T05:32:24.504Z,1932.00
2018-06-07T05:33:24.463Z,1948.00
2018-06-07T05:34:24.423Z,1960.00
2018-06-07T05:35:24.386Z,1976.00
2018-06-07T05:36:24.346Z,1984.00
2018-06-07T05:37:24.305Z,1980.00
2018-06-07T05:38:24.268Z,2020.00
2018-06-07T05:39:24.227Z,2060.00
2018-06-07T05:40:24.193Z,2076.00
2018-06-07T05:41:24.152Z,2092.00
2018-06-07T05:42:24.113Z,2108.00
2018-06-07T05:43:24.074Z,2148.00
2018-06-07T05:44:24.063Z,2200.00
2018-06-07T05:45:23.996Z,2220.00
2018-06-07T05:46:23.955Z,2228.00
2018-06-07T05:47:23.918Z,2216.00
2018-06-07T05:48:23.877Z,2224.00
2018-06-07T05:49:23.838Z,2248.00
2018-06-07T05:50:23.800Z,2276.00
2018-06-07T05:51:23.761Z,2292.00
2018-06-07T05:52:23.723Z,2280.00
2018-06-07T05:53:23.691Z,2268.00
2018-06-07T05:54:23.644Z,2264.00
2018-06-07T05:55:23.607Z,2244.00
2018-06-07T05:56:23.589Z,2236.00
2018-06-07T05:57:23.542Z,2200.00
2018-06-07T05:58:23.493Z,2168.00
2018-06-07T05:59:23.472Z,2144.00
2018-06-07T06:00:23.414Z,2112.00
2018-06-07T06:01:23.375Z,2080.00
2018-06-07T06:02:23.349Z,2040.00
2018-06-07T06:03:23.301Z,1988.00
2018-06-07T06:04:23.263Z,1916.00
2018-06-07T06:05:23.220Z,1840.00
2018-06-07T06:06:23.227Z,1780.00
2018-06-07T06:07:23.149Z,1728.00
2018-06-07T06:08:23.108Z,1680.00
2018-06-07T06:09:23.127Z,1628.00
2018-06-07T06:10:23.033Z,1580.00
2018-06-07T06:11:23.009Z,1528.00
2018-06-07T06:12:23.027Z,1468.00
2018-06-07T06:13:22.915Z,1416.00
2018-06-07T06:14:22.882Z,1356.00
2018-06-07T06:15:22.840Z,1296.00
2018-06-07T06:16:22.803Z,1240.00
2018-06-07T06:17:22.767Z,1184.00
2018-06-07T06:18:22.728Z,1132.00
2018-06-07T06:19:22.689Z,1012.00
2018-06-07T06:20:22.651Z,1032.00
2018-06-07T06:21:22.624Z,992.00
2018-06-07T06:22:22.574Z,956.00
2018-06-07T06:23:22.540Z,936.00
2018-06-07T06:24:22.497Z,952.00
2018-06-07T06:25:22.458Z,948.00
2018-06-07T06:26:22.431Z,952.00
2018-06-07T06:27:22.384Z,976.00
2018-06-07T06:28:22.345Z,1000.00
2018-06-07T06:29:22.307Z,1036.00
2018-06-07T06:30:22.267Z,1084.00
2018-06-07T06:31:22.231Z,1140.00
2018-06-07T06:32:22.192Z,1196.00
2018-06-07T06:33:22.160Z,1260.00
2018-06-07T06:34:22.115Z,1352.00
2018-06-07T06:35:22.084Z,1460.00
2018-06-07T06:36:22.041Z,1556.00
2018-06-07T06:37:22.000Z,1620.00
2018-06-07T06:38:21.963Z,1632.00
2018-06-07T06:39:21.925Z,1624.00
2018-06-07T06:40:21.892Z,1604.00
2018-06-07T06:41:21.854Z,1584.00
2018-06-07T06:42:21.811Z,1572.00
2018-06-07T06:43:21.775Z,1572.00
2018-06-07T06:44:21.736Z,1596.00
2018-06-07T06:45:21.702Z,1704.00
2018-06-07T06:46:21.661Z,1748.00
2018-06-07T06:47:21.628Z,1768.00
2018-06-07T06:48:21.584Z,1784.00
2018-06-07T06:49:21.619Z,1792.00
2018-06-07T06:50:21.783Z,1776.00
2018-06-07T06:51:21.784Z,1728.00
2018-06-07T06:52:21.811Z,1688.00
2018-06-07T06:53:21.589Z,1788.00
2018-06-07T06:54:21.841Z,1788.00
2018-06-07T06:55:21.570Z,1776.00
2018-06-07T06:56:21.289Z,1744.00
2018-06-07T06:57:21.243Z,1712.00
2018-06-07T06:58:21.206Z,1660.00
2018-06-07T06:59:21.168Z,1552.00
2018-06-07T07:00:21.136Z,1540.00
2018-06-07T07:01:21.091Z,1548.00
2018-06-07T07:02:21.063Z,1568.00
2018-06-07T07:03:21.019Z,1596.00
2018-06-07T07:04:21.048Z,1620.00
2018-06-07T07:05:20.942Z,1736.00
2018-06-07T07:06:20.910Z,1688.00
2018-06-07T07:07:20.868Z,1680.00
2018-06-07T07:08:20.841Z,1692.00
2018-06-07T07:09:20.850Z,1704.00
2018-06-07T07:10:20.754Z,1712.00
2018-06-07T07:11:20.727Z,1716.00
2018-06-07T07:12:20.680Z,1728.00
2018-06-07T07:13:20.647Z,1768.00
2018-06-07T07:14:20.602Z,1776.00
2018-06-07T07:15:20.569Z,1864.00
2018-06-07T07:16:20.531Z,2068.00
2018-06-07T07:17:20.489Z,2072.00
2018-06-07T07:18:20.458Z,2064.00
2018-06-07T07:19:20.415Z,2028.00
2018-06-07T07:20:20.379Z,2048.00
2018-06-07T07:21:20.339Z,2048.00
2018-06-07T07:22:20.307Z,2056.00
2018-06-07T07:23:20.287Z,2064.00
2018-06-07T07:24:20.232Z,2068.00
2018-06-07T07:25:20.190Z,2068.00
2018-06-07T07:26:20.153Z,2076.00
2018-06-07T07:27:20.120Z,2088.00
2018-06-07T07:28:20.082Z,2100.00
2018-06-07T07:29:20.046Z,2108.00
2018-06-07T07:30:20.012Z,2116.00
2018-06-07T07:31:19.998Z,2120.00
2018-06-07T07:32:19.930Z,2120.00
2018-06-07T07:33:19.893Z,2116.00
2018-06-07T07:34:19.862Z,2112.00
2018-06-07T07:35:19.821Z,2116.00
2018-06-07T07:36:19.781Z,2128.00
2018-06-07T07:37:19.743Z,2136.00
2018-06-07T07:38:19.706Z,2136.00
2018-06-07T07:39:19.668Z,2148.00
2018-06-07T07:40:19.629Z,2152.00
2018-06-07T07:41:19.590Z,2156.00
2018-06-07T07:42:19.555Z,2152.00
2018-06-07T07:43:19.520Z,2120.00
2018-06-07T07:44:19.484Z,2168.00
2018-06-07T07:45:19.448Z,2164.00
2018-06-07T07:46:19.410Z,2176.00
2018-06-07T07:47:19.369Z,2192.00
2018-06-07T07:48:19.333Z,2192.00
2018-06-07T07:49:19.295Z,2208.00
2018-06-07T07:50:19.258Z,2216.00
2018-06-07T07:51:19.226Z,2232.00
2018-06-07T07:52:19.185Z,2252.00
2018-06-07T07:53:19.149Z,2276.00
2018-06-07T07:54:19.115Z,2296.00
2018-06-07T07:55:19.077Z,2316.00
2018-06-07T07:56:19.037Z,2332.00
2018-06-07T07:57:19.001Z,2352.00
2018-06-07T07:58:18.964Z,2364.00
2018-06-07T07:59:18.928Z,2368.00
2018-06-07T08:00:18.890Z,2380.00
2018-06-07T08:01:18.856Z,2384.00
2018-06-07T08:02:18.815Z,2400.00
2018-06-07T08:03:18.779Z,2408.00
2018-06-07T08:04:18.745Z,2416.00
2018-06-07T08:05:18.711Z,2420.00
2018-06-07T08:06:18.670Z,2428.00
2018-06-07T08:07:18.639Z,2448.00
2018-06-07T08:08:18.597Z,2464.00
2018-06-07T08:09:18.561Z,2488.00
2018-06-07T08:10:18.527Z,2488.00
2018-06-07T08:11:18.487Z,2480.00
2018-06-07T08:12:18.451Z,2512.00
2018-06-07T08:13:18.414Z,2544.00
2018-06-07T08:14:18.376Z,2568.00
2018-06-07T08:15:18.362Z,2584.00
2018-06-07T08:16:18.304Z,2596.00
2018-06-07T08:17:18.268Z,2608.00
2018-06-07T08:18:18.231Z,2604.00
2018-06-07T08:19:18.194Z,2608.00
2018-06-07T08:20:18.159Z,2620.00
2018-06-07T08:21:18.124Z,2620.00
2018-06-07T08:22:18.089Z,2632.00
2018-06-07T08:23:18.050Z,2652.00
2018-06-07T08:24:18.015Z,2660.00
2018-06-07T08:25:17.979Z,2656.00
2018-06-07T08:26:17.945Z,2672.00
2018-06-07T08:27:17.912Z,2692.00
2018-06-07T08:28:17.870Z,2676.00
2018-06-07T08:29:17.833Z,2704.00
2018-06-07T08:30:17.799Z,2740.00
2018-06-07T08:31:17.767Z,2752.00
2018-06-07T08:32:17.727Z,2768.00
2018-06-07T08:33:17.694Z,2760.00
2018-06-07T08:34:17.658Z,2764.00
2018-06-07T08:35:17.624Z,2788.00
2018-06-07T08:36:17.585Z,2800.00
2018-06-07T08:37:17.550Z,2816.00
2018-06-07T08:38:17.512Z,2844.00
2018-06-07T08:39:17.491Z,2788.00
2018-06-07T08:40:17.442Z,2852.00
2018-06-07T08:41:17.407Z,2876.00
2018-06-07T08:42:17.371Z,2900.00
2018-06-07T08:43:17.334Z,2924.00
2018-06-07T08:44:17.299Z,2924.00
2018-06-07T08:45:17.267Z,2920.00
2018-06-07T08:46:17.228Z,2912.00
2018-06-07T08:47:17.195Z,2896.00
2018-06-07T08:48:17.157Z,2920.00
2018-06-07T08:49:17.125Z,2944.00
2018-06-07T08:50:17.089Z,2972.00
2018-06-07T08:51:17.057Z,2980.00
2018-06-07T08:52:17.019Z,2976.00
2018-06-07T08:53:16.983Z,2988.00
2018-06-07T08:54:16.963Z,3016.00
2018-06-07T08:55:16.919Z,3024.00
2018-06-07T08:56:16.884Z,3052.00
2018-06-07T08:57:16.847Z,3052.00
2018-06-07T08:58:16.810Z,3088.00
2018-06-07T08:59:16.774Z,3100.00
2018-06-07T09:00:16.812Z,3108.00
2018-06-07T09:01:16.705Z,3112.00
2018-06-07T09:02:16.669Z,3116.00
2018-06-07T09:03:16.636Z,3116.00
2018-06-07T09:04:16.600Z,3128.00
2018-06-07T09:05:16.567Z,3152.00
2018-06-07T09:06:16.530Z,3180.00
2018-06-07T09:07:16.496Z,3212.00
2018-06-07T09:08:16.461Z,3220.00
2018-06-07T09:09:16.425Z,3212.00
2018-06-07T09:10:16.392Z,3208.00
2018-06-07T09:11:16.359Z,3240.00
2018-06-07T09:12:16.322Z,3256.00
2018-06-07T09:13:16.288Z,3260.00
2018-06-07T09:14:16.257Z,3284.00
2018-06-07T09:15:16.218Z,3316.00
2018-06-07T09:16:16.184Z,3340.00
2018-06-07T09:17:16.148Z,3372.00
2018-06-07T09:18:16.115Z,3388.00
2018-06-07T09:19:16.080Z,3408.00
2018-06-07T09:20:16.049Z,3444.00
2018-06-07T09:21:16.012Z,3488.00
2018-06-07T09:22:15.978Z,3116.00
2018-06-07T09:23:15.946Z,3500.00
2018-06-07T09:24:15.908Z,3132.00
2018-06-07T09:25:15.873Z,4188.00
2018-06-07T09:26:15.840Z,4140.00
2018-06-07T09:27:15.806Z,4708.00
2018-06-07T09:28:15.776Z,4524.00
2018-06-07T09:29:15.739Z,4708.00
2018-06-07T09:30:15.706Z,4348.00
2018-06-07T09:31:15.670Z,3936.00
2018-06-07T09:32:15.638Z,3704.00
2018-06-07T09:33:15.600Z,3896.00
2018-06-07T09:34:15.572Z,4156.00
2018-06-07T09:35:15.535Z,3924.00
2018-06-07T09:36:15.501Z,4224.00
2018-06-07T09:37:15.467Z,5000.00
2018-06-07T09:38:15.433Z,5052.00
2018-06-07T09:39:15.400Z,4948.00
2018-06-07T09:40:15.365Z,5036.00
2018-06-07T09:41:15.331Z,5008.00
2018-06-07T09:42:15.296Z,4984.00
2018-06-07T09:43:15.264Z,5040.00
2018-06-07T09:44:15.238Z,5084.00
2018-06-07T09:45:15.198Z,5164.00
2018-06-07T09:46:15.164Z,5244.00
2018-06-07T09:47:15.131Z,5372.00
2018-06-07T09:48:15.099Z,5580.00
2018-06-07T09:49:15.066Z,5680.00
2018-06-07T09:50:15.034Z,5840.00
2018-06-07T09:51:15.001Z,5932.00
2018-06-07T09:52:14.963Z,5924.00
2018-06-07T09:53:14.930Z,6048.00
2018-06-07T09:54:14.898Z,6064.00
2018-06-07T09:55:14.868Z,5928.00
2018-06-07T09:56:14.833Z,5832.00
2018-06-07T09:57:14.804Z,5752.00
2018-06-07T09:58:14.838Z,5664.00
2018-06-07T09:59:14.734Z,5544.00
2018-06-07T10:00:14.700Z,5600.00
2018-06-07T10:01:14.666Z,5700.00
2018-06-07T10:02:14.633Z,5756.00
2018-06-07T10:03:14.600Z,5808.00
2018-06-07T10:04:14.577Z,5864.00
2018-06-07T10:05:14.535Z,5840.00
2018-06-07T10:06:14.501Z,5784.00
2018-06-07T10:07:14.473Z,5796.00
2018-06-07T10:08:14.441Z,5744.00
2018-06-07T10:09:14.407Z,5744.00
2018-06-07T10:10:14.373Z,5812.00
2018-06-07T10:11:14.339Z,5788.00
2018-06-07T10:12:14.308Z,5752.00
2018-06-07T10:13:14.280Z,5724.00
2018-06-07T10:14:14.242Z,5676.00
2018-06-07T10:15:14.210Z,5700.00
2018-06-07T10:16:14.237Z,5700.00
2018-06-07T10:17:14.146Z,5708.00
2018-06-07T10:18:14.115Z,5724.00
2018-06-07T10:19:14.084Z,5652.00
2018-06-07T10:20:14.053Z,5556.00
2018-06-07T10:21:14.017Z,5460.00
2018-06-07T10:22:13.986Z,5420.00
2018-06-07T10:23:13.955Z,5356.00
2018-06-07T10:24:13.920Z,5348.00
2018-06-07T10:25:13.891Z,5300.00
2018-06-07T10:26:13.858Z,5292.00
2018-06-07T10:27:13.826Z,5360.00
2018-06-07T10:28:13.792Z,5400.00
2018-06-07T10:29:13.789Z,5384.00
2018-06-07T10:30:13.731Z,5216.00
2018-06-07T10:31:13.699Z,5472.00
2018-06-07T10:32:13.665Z,5552.00
2018-06-07T10:33:13.630Z,5648.00
2018-06-07T10:34:13.599Z,5704.00
2018-06-07T10:35:13.568Z,5684.00
2018-06-07T10:36:13.538Z,5672.00
2018-06-07T10:37:13.502Z,5588.00
2018-06-07T10:38:13.470Z,5596.00
2018-06-07T10:39:13.440Z,5748.00
2018-06-07T10:40:13.411Z,5856.00
2018-06-07T10:41:13.375Z,5848.00
2018-06-07T10:42:13.357Z,5800.00
2018-06-07T10:43:13.312Z,5728.00
2018-06-07T10:44:13.281Z,5916.00
2018-06-07T10:45:13.248Z,5936.00
2018-06-07T10:46:13.215Z,5824.00
2018-06-07T10:47:13.183Z,5864.00
2018-06-07T10:48:13.151Z,5764.00
2018-06-07T10:49:13.121Z,6096.00
2018-06-07T10:50:13.125Z,6280.00
2018-06-07T10:51:13.058Z,6268.00
2018-06-07T10:52:13.040Z,6240.00
2018-06-07T10:53:12.994Z,6132.00
2018-06-07T10:54:12.962Z,6040.00
2018-06-07T10:55:12.933Z,5896.00
2018-06-07T10:56:12.904Z,5872.00
2018-06-07T10:57:12.867Z,5828.00
2018-06-07T10:58:12.836Z,5776.00
2018-06-07T10:59:12.804Z,5784.00
2018-06-07T11:00:12.775Z,5832.00
2018-06-07T11:01:12.742Z,5892.00
2018-06-07T11:02:12.711Z,5896.00
2018-06-07T11:03:12.680Z,5868.00
2018-06-07T11:04:12.646Z,5776.00
2018-06-07T11:05:12.615Z,5712.00
2018-06-07T11:06:12.596Z,5176.00
2018-06-07T11:07:12.553Z,4880.00
2018-06-07T11:08:12.553Z,4364.00
2018-06-07T11:09:12.490Z,4168.00
2018-06-07T11:10:12.461Z,4204.00
2018-06-07T11:11:12.431Z,4796.00
2018-06-07T11:12:12.397Z,5348.00
2018-06-07T11:13:12.368Z,6080.00
2018-06-07T11:14:12.335Z,5900.00
2018-06-07T11:15:12.309Z,6348.00
2018-06-07T11:16:12.273Z,6472.00
2018-06-07T11:17:12.239Z,6532.00
2018-06-07T11:18:12.213Z,6600.00
2018-06-07T11:19:12.189Z,6716.00
2018-06-07T11:20:12.147Z,6880.00
2018-06-07T11:21:12.118Z,6964.00
2018-06-07T11:22:12.084Z,7064.00
2018-06-07T11:23:12.054Z,7092.00
2018-06-07T11:24:12.023Z,6992.00
2018-06-07T11:25:11.993Z,7012.00
2018-06-07T11:26:11.964Z,6980.00
2018-06-07T11:27:11.930Z,7032.00
2018-06-07T11:28:11.899Z,7116.00
2018-06-07T11:29:11.867Z,7124.00
2018-06-07T11:30:11.839Z,7080.00
2018-06-07T11:31:11.808Z,6984.00
2018-06-07T11:32:11.779Z,6832.00
2018-06-07T11:33:11.743Z,6080.00
2018-06-07T11:34:11.713Z,6520.00
2018-06-07T11:35:11.685Z,6784.00
2018-06-07T11:36:11.652Z,6772.00
2018-06-07T11:37:11.621Z,7324.00
2018-06-07T11:38:11.591Z,7128.00
2018-06-07T11:39:11.566Z,5788.00
2018-06-07T11:40:11.532Z,5600.00
2018-06-07T11:41:11.500Z,5936.00
2018-06-07T11:42:11.468Z,7196.00
2018-06-07T11:43:11.440Z,7440.00
2018-06-07T11:44:11.409Z,7500.00
2018-06-07T11:45:11.380Z,7668.00
2018-06-07T11:46:11.354Z,7968.00
2018-06-07T11:47:11.326Z,8132.00
2018-06-07T11:48:11.288Z,8168.00
2018-06-07T11:49:11.258Z,8272.00
2018-06-07T11:50:11.227Z,8364.00
2018-06-07T11:51:11.213Z,8360.00
2018-06-07T11:52:11.168Z,8348.00
2018-06-07T11:53:11.138Z,8296.00
2018-06-07T11:54:11.109Z,8424.00
2018-06-07T11:55:11.086Z,8528.00
2018-06-07T11:56:11.050Z,8644.00
2018-06-07T11:57:11.016Z,8804.00
2018-06-07T11:58:12.839Z,8820.00
2018-06-07T11:59:10.958Z,8652.00
2018-06-07T12:00:10.930Z,8168.00
2018-06-07T12:01:10.901Z,8032.00
2018-06-07T12:02:10.870Z,8012.00
2018-06-07T12:03:10.843Z,8032.00
2018-06-07T12:04:10.812Z,8156.00
2018-06-07T12:05:10.782Z,8240.00
2018-06-07T12:06:10.755Z,8244.00
2018-06-07T12:07:10.727Z,8248.00
2018-06-07T12:08:10.697Z,8340.00
2018-06-07T12:09:10.664Z,8360.00
2018-06-07T12:10:10.639Z,8328.00
2018-06-07T12:11:10.610Z,8496.00
2018-06-07T12:12:10.580Z,8568.00
2018-06-07T12:13:10.550Z,8692.00
2018-06-07T12:14:10.523Z,8584.00
2018-06-07T12:15:10.494Z,8672.00
2018-06-07T12:16:10.465Z,8672.00
2018-06-07T12:17:10.435Z,8536.00
2018-06-07T12:18:10.406Z,8620.00
2018-06-07T12:19:10.378Z,8772.00
2018-06-07T12:20:10.356Z,8908.00
2018-06-07T12:21:10.322Z,8948.00
2018-06-07T12:22:10.294Z,8812.00
2018-06-07T12:23:10.272Z,8604.00
2018-06-07T12:24:10.238Z,8672.00
2018-06-07T12:25:10.219Z,8872.00
2018-06-07T12:26:10.194Z,9068.00
2018-06-07T12:27:10.159Z,8656.00
2018-06-07T12:28:10.123Z,8632.00